createdAt,value
2018-05-25T00:02:03.424Z,18.70
2018-05-25T00:04:29.830Z,18.70
2018-05-25T00:06:56.247Z,18.70
2018-05-25T00:09:24.144Z,18.60
2018-05-25T00:11:50.641Z,18.60
2018-05-25T00:14:17.091Z,18.60
2018-05-25T00:16:43.471Z,18.50
2018-05-25T00:19:09.884Z,18.60
2018-05-25T00:21:36.310Z,18.50
2018-05-25T00:24:03.424Z,18.50
2018-05-25T00:26:29.826Z,18.50
2018-05-25T00:28:56.213Z,18.50
2018-05-25T00:31:22.626Z,18.50
2018-05-25T00:33:49.022Z,18.60
2018-05-25T00:36:15.390Z,18.60
2018-05-25T00:38:54.542Z,18.60
2018-05-25T00:41:21.664Z,18.60
2018-05-25T00:43:48.067Z,18.60
2018-05-25T00:46:14.495Z,18.60
2018-05-25T00:48:40.896Z,18.50
2018-05-25T00:51:08.033Z,18.40
2018-05-25T00:53:35.164Z,18.40
2018-05-25T00:56:01.574Z,18.40
2018-05-25T00:58:27.972Z,18.30
2018-05-25T01:00:54.370Z,18.30
2018-05-25T01:03:20.781Z,18.30
2018-05-25T01:05:47.165Z,18.30
2018-05-25T01:08:13.579Z,18.30
2018-05-25T01:10:40.721Z,18.40
2018-05-25T01:13:07.234Z,18.30
2018-05-25T01:15:33.648Z,18.40
2018-05-25T01:18:00.814Z,18.30
2018-05-25T01:20:27.255Z,18.30
2018-05-25T01:22:53.654Z,18.40
2018-05-25T01:25:20.056Z,18.30
2018-05-25T01:27:47.191Z,18.30
2018-05-25T01:30:13.571Z,18.30
2018-05-25T01:32:39.966Z,18.30
2018-05-25T01:35:07.141Z,18.40
2018-05-25T01:37:33.559Z,18.30
2018-05-25T01:40:00.769Z,18.40
2018-05-25T01:42:27.161Z,18.40
2018-05-25T01:44:53.555Z,18.40
2018-05-25T01:47:19.980Z,18.40
2018-05-25T01:49:46.388Z,18.40
2018-05-25T01:52:12.823Z,18.30
2018-05-25T01:54:39.223Z,18.30
2018-05-25T01:57:05.623Z,18.30
2018-05-25T01:59:32.016Z,18.30
2018-05-25T02:01:58.421Z,18.30
2018-05-25T02:04:24.822Z,18.30
2018-05-25T02:06:51.994Z,18.30
2018-05-25T02:09:19.119Z,18.30
2018-05-25T02:11:45.513Z,18.30
2018-05-25T02:14:11.965Z,18.30
2018-05-25T02:16:38.355Z,18.30
2018-05-25T02:19:04.781Z,18.30
2018-05-25T02:21:31.174Z,18.30
2018-05-25T02:23:57.570Z,18.30
2018-05-25T02:26:23.977Z,18.30
2018-05-25T02:28:50.385Z,18.30
2018-05-25T02:31:16.768Z,18.30
2018-05-25T02:33:43.172Z,18.30
2018-05-25T02:36:09.573Z,18.30
2018-05-25T02:38:36.794Z,18.30
2018-05-25T02:41:03.171Z,18.30
2018-05-25T02:43:30.306Z,18.30
2018-05-25T02:45:56.718Z,18.30
2018-05-25T02:48:23.136Z,18.30
2018-05-25T02:50:49.542Z,18.30
2018-05-25T02:53:15.998Z,18.20
2018-05-25T02:55:42.384Z,18.30
2018-05-25T02:58:09.500Z,18.40
2018-05-25T03:00:36.675Z,18.40
2018-05-25T03:03:03.067Z,18.40
2018-05-25T03:05:29.434Z,18.50
2018-05-25T03:07:55.831Z,18.50
2018-05-25T03:10:22.240Z,18.30
2018-05-25T03:12:48.651Z,18.30
2018-05-25T03:15:15.060Z,18.30
2018-05-25T03:17:41.473Z,18.20
2018-05-25T03:20:07.888Z,18.20
2018-05-25T03:22:34.287Z,18.30
2018-05-25T03:25:01.427Z,18.30
2018-05-25T03:27:28.559Z,18.30
2018-05-25T03:29:54.957Z,18.30
2018-05-25T03:32:21.357Z,18.20
2018-05-25T03:34:47.765Z,18.10
2018-05-25T03:37:14.227Z,18.20
2018-05-25T03:39:40.630Z,18.20
2018-05-25T03:42:07.027Z,18.10
2018-05-25T03:44:33.430Z,18.10
2018-05-25T03:46:59.833Z,18.10
2018-05-25T03:49:26.225Z,18.00
2018-05-25T03:51:52.642Z,18.00
2018-05-25T03:54:19.040Z,18.00
2018-05-25T03:56:46.158Z,18.00
2018-05-25T03:59:24.946Z,18.00
2018-05-25T04:01:57.405Z,18.10
2018-05-25T04:04:23.792Z,18.00
2018-05-25T04:06:50.207Z,18.00
2018-05-25T04:09:16.596Z,18.00
2018-05-25T04:11:43.013Z,18.00
2018-05-25T04:14:10.149Z,18.00
2018-05-25T04:16:37.298Z,18.00
2018-05-25T04:19:03.710Z,17.90
2018-05-25T04:21:30.122Z,17.90
2018-05-25T04:23:56.507Z,17.80
2018-05-25T04:26:23.622Z,17.70
2018-05-25T04:28:50.020Z,17.70
2018-05-25T04:31:16.434Z,17.70
2018-05-25T04:33:43.560Z,17.70
2018-05-25T04:36:10.706Z,17.60
2018-05-25T04:38:37.175Z,17.60
2018-05-25T04:41:03.599Z,17.60
2018-05-25T04:43:30.726Z,17.70
2018-05-25T04:45:57.111Z,17.60
2018-05-25T04:48:23.541Z,17.70
2018-05-25T04:50:49.989Z,17.70
2018-05-25T04:53:16.392Z,17.70
2018-05-25T04:55:42.788Z,17.70
2018-05-25T04:58:09.188Z,17.60
2018-05-25T05:00:35.593Z,17.60
2018-05-25T05:03:01.998Z,17.60
2018-05-25T05:05:29.126Z,17.60
2018-05-25T05:07:55.526Z,17.60
2018-05-25T05:10:21.912Z,17.60
2018-05-25T05:12:49.067Z,17.60
2018-05-25T05:15:16.285Z,17.70
2018-05-25T05:17:42.668Z,17.60
2018-05-25T05:20:09.091Z,17.60
2018-05-25T05:22:36.216Z,17.70
2018-05-25T05:25:02.639Z,17.70
2018-05-25T05:27:29.043Z,17.70
2018-05-25T05:29:55.434Z,17.70
2018-05-25T05:32:22.571Z,17.60
2018-05-25T05:34:49.000Z,17.60
2018-05-25T05:37:16.192Z,17.60
2018-05-25T05:39:42.577Z,17.60
2018-05-25T05:42:08.973Z,17.60
2018-05-25T05:44:35.447Z,17.60
2018-05-25T05:47:02.616Z,17.60
2018-05-25T05:49:29.787Z,17.60
2018-05-25T05:51:56.186Z,17.60
2018-05-25T05:54:22.553Z,17.60
2018-05-25T05:56:48.943Z,17.60
2018-05-25T05:59:15.359Z,17.60
2018-05-25T06:01:41.753Z,17.50
2018-05-25T06:04:08.156Z,17.50
2018-05-25T06:06:35.325Z,17.50
2018-05-25T06:09:01.771Z,17.50
2018-05-25T06:11:28.173Z,17.50
2018-05-25T06:13:55.322Z,17.30
2018-05-25T06:16:22.550Z,17.30
2018-05-25T06:18:48.976Z,17.30
2018-05-25T06:21:15.395Z,17.40
2018-05-25T06:23:41.807Z,17.30
2018-05-25T06:26:08.284Z,17.30
2018-05-25T06:28:34.675Z,17.40
2018-05-25T06:31:01.100Z,17.30
2018-05-25T06:33:27.530Z,17.30
2018-05-25T06:35:53.938Z,17.30
2018-05-25T06:38:21.097Z,17.10
2018-05-25T06:40:47.557Z,17.10
2018-05-25T06:43:13.977Z,17.20
2018-05-25T06:45:40.379Z,17.20
2018-05-25T06:48:07.527Z,17.20
2018-05-25T06:50:33.919Z,17.20
2018-05-25T06:53:00.391Z,17.10
2018-05-25T06:55:26.829Z,17.20
2018-05-25T06:57:54.007Z,17.10
2018-05-25T07:00:20.419Z,17.10
2018-05-25T07:02:47.559Z,17.10
2018-05-25T07:05:14.776Z,17.10
2018-05-25T07:07:42.004Z,17.10
2018-05-25T07:10:08.437Z,17.10
2018-05-25T07:12:34.852Z,17.20
2018-05-25T07:15:01.271Z,17.20
2018-05-25T07:17:28.406Z,17.10
2018-05-25T07:19:54.786Z,17.00
2018-05-25T07:22:21.175Z,17.00
2018-05-25T07:24:47.575Z,17.10
2018-05-25T07:27:15.455Z,17.10
2018-05-25T07:29:41.879Z,17.00
2018-05-25T07:32:08.270Z,17.10
2018-05-25T07:34:34.724Z,17.10
2018-05-25T07:37:01.159Z,17.10
2018-05-25T07:39:27.575Z,17.10
2018-05-25T07:41:53.983Z,17.10
2018-05-25T07:44:20.386Z,17.10
2018-05-25T07:46:46.794Z,17.10
2018-05-25T07:49:13.202Z,17.00
2018-05-25T07:51:39.602Z,16.90
2018-05-25T07:54:06.101Z,16.80
2018-05-25T07:56:32.505Z,16.80
2018-05-25T07:58:58.890Z,16.80
2018-05-25T08:01:25.287Z,16.70
2018-05-25T08:03:51.678Z,16.70
2018-05-25T08:06:18.958Z,16.60
2018-05-25T08:08:45.395Z,16.60
2018-05-25T08:11:11.787Z,16.60
2018-05-25T08:13:39.027Z,16.70
2018-05-25T08:16:05.416Z,16.70
2018-05-25T08:18:31.821Z,16.70
2018-05-25T08:20:58.417Z,16.70
2018-05-25T08:23:25.781Z,16.60
2018-05-25T08:25:52.183Z,16.60
2018-05-25T08:28:18.813Z,16.60
2018-05-25T08:30:45.222Z,16.60
2018-05-25T08:33:11.618Z,16.70
2018-05-25T08:35:38.067Z,16.70
2018-05-25T08:38:04.524Z,16.90
2018-05-25T08:40:30.922Z,16.90
2018-05-25T08:42:58.076Z,17.00
2018-05-25T08:45:24.475Z,16.90
2018-05-25T08:47:50.925Z,16.90
2018-05-25T08:50:17.322Z,17.00
2018-05-25T08:52:43.747Z,16.90
2018-05-25T08:55:10.240Z,16.90
2018-05-25T08:57:36.638Z,16.90
2018-05-25T09:00:03.103Z,16.90
2018-05-25T09:02:29.514Z,17.00
2018-05-25T09:04:55.945Z,17.00
2018-05-25T09:07:22.336Z,17.00
2018-05-25T09:09:48.754Z,17.00
2018-05-25T09:12:15.884Z,17.00
2018-05-25T09:14:42.294Z,17.00
2018-05-25T09:17:08.713Z,17.20
2018-05-25T09:19:35.097Z,17.10
2018-05-25T09:22:01.483Z,17.10
2018-05-25T09:24:27.876Z,17.20
2018-05-25T09:26:55.012Z,17.10
2018-05-25T09:29:22.148Z,17.20
2018-05-25T09:31:48.550Z,17.10
2018-05-25T09:34:14.943Z,17.00
2018-05-25T09:36:41.335Z,16.90
2018-05-25T09:39:07.772Z,16.90
2018-05-25T09:41:34.227Z,16.90
2018-05-25T09:44:01.374Z,16.90
2018-05-25T09:46:28.524Z,17.00
2018-05-25T09:48:55.687Z,17.00
2018-05-25T09:51:22.082Z,17.00
2018-05-25T09:53:48.488Z,17.00
2018-05-25T09:56:14.890Z,17.10
2018-05-25T09:58:41.345Z,17.10
2018-05-25T10:01:07.768Z,17.20
2018-05-25T10:03:34.196Z,17.30
2018-05-25T10:06:00.606Z,17.40
2018-05-25T10:08:27.791Z,17.30
2018-05-25T10:10:55.134Z,17.30
2018-05-25T10:13:21.554Z,17.40
2018-05-25T10:15:48.709Z,17.50
2018-05-25T10:18:15.102Z,17.40
2018-05-25T10:20:41.497Z,17.50
2018-05-25T10:23:07.938Z,17.50
2018-05-25T10:25:34.342Z,17.50
2018-05-25T10:28:00.726Z,17.50
2018-05-25T10:30:27.129Z,17.50
2018-05-25T10:32:53.547Z,17.50
2018-05-25T10:35:19.983Z,17.50
2018-05-25T10:37:46.397Z,17.60
2018-05-25T10:40:12.839Z,17.60
2018-05-25T10:42:39.230Z,17.60
2018-05-25T10:45:07.134Z,17.70
2018-05-25T10:47:33.528Z,17.70
2018-05-25T10:49:59.910Z,17.80
2018-05-25T10:52:26.321Z,17.80
2018-05-25T10:54:53.504Z,17.80
2018-05-25T10:57:20.480Z,17.80
2018-05-25T10:59:46.876Z,17.90
2018-05-25T11:02:13.277Z,18.00
2018-05-25T11:04:40.408Z,18.00
2018-05-25T11:07:08.295Z,18.20
2018-05-25T11:09:35.484Z,18.20
2018-05-25T11:12:01.886Z,18.20
2018-05-25T11:14:29.055Z,18.30
2018-05-25T11:16:55.490Z,18.30
2018-05-25T11:19:21.968Z,18.30
2018-05-25T11:21:48.396Z,18.30
2018-05-25T11:24:14.792Z,18.30
2018-05-25T11:26:41.202Z,18.30
2018-05-25T11:29:08.335Z,18.40
2018-05-25T11:31:34.764Z,18.40
2018-05-25T11:34:01.174Z,18.60
2018-05-25T11:36:27.589Z,18.60
2018-05-25T11:38:53.974Z,18.60
2018-05-25T11:41:21.119Z,18.90
2018-05-25T11:43:48.274Z,19.00
2018-05-25T11:46:15.425Z,19.20
2018-05-25T11:48:42.696Z,19.20
2018-05-25T11:51:09.143Z,19.20
2018-05-25T11:53:36.251Z,19.40
2018-05-25T11:56:03.414Z,19.50
2018-05-25T11:58:30.549Z,19.60
2018-05-25T12:00:56.987Z,19.60
2018-05-25T12:03:24.142Z,19.70
2018-05-25T12:05:51.356Z,19.80
2018-05-25T12:08:17.753Z,19.70
2018-05-25T12:10:44.225Z,19.80
2018-05-25T12:13:11.722Z,20.00
2018-05-25T12:15:38.884Z,20.20
2018-05-25T12:18:05.297Z,20.20
2018-05-25T12:20:32.458Z,20.30
2018-05-25T12:22:59.607Z,20.50
2018-05-25T12:25:26.776Z,20.50
2018-05-25T12:27:54.222Z,20.60
2018-05-25T12:30:20.665Z,20.70
2018-05-25T12:32:47.065Z,20.70
2018-05-25T12:35:14.429Z,20.90
2018-05-25T12:37:41.635Z,21.10
2018-05-25T12:40:08.031Z,21.10
2018-05-25T12:42:34.438Z,21.20
2018-05-25T12:45:10.765Z,21.40
2018-05-25T12:47:37.195Z,21.40
2018-05-25T12:50:03.637Z,21.50
2018-05-25T12:52:30.612Z,21.40
2018-05-25T12:54:57.780Z,21.50
2018-05-25T12:57:25.050Z,21.60
2018-05-25T12:59:52.386Z,21.60
2018-05-25T13:02:19.597Z,21.70
2018-05-25T13:04:45.990Z,21.70
2018-05-25T13:07:12.410Z,21.60
2018-05-25T13:09:39.579Z,21.40
2018-05-25T13:12:06.081Z,21.40
2018-05-25T13:14:33.252Z,21.50
2018-05-25T13:17:00.413Z,21.50
2018-05-25T13:19:26.824Z,21.50
2018-05-25T13:21:53.992Z,21.70
2018-05-25T13:24:20.454Z,21.80
2018-05-25T13:26:46.945Z,21.90
2018-05-25T13:29:13.354Z,21.90
2018-05-25T13:31:39.762Z,21.90
2018-05-25T13:34:06.706Z,21.90
2018-05-25T13:36:33.156Z,22.00
2018-05-25T13:38:59.568Z,22.10
2018-05-25T13:41:25.999Z,22.10
2018-05-25T13:43:52.411Z,22.20
2018-05-25T13:46:18.854Z,22.20
2018-05-25T13:48:46.012Z,22.40
2018-05-25T13:51:12.433Z,22.30
2018-05-25T13:53:38.824Z,22.40
2018-05-25T13:56:05.999Z,22.60
2018-05-25T13:58:32.670Z,22.60
2018-05-25T14:00:59.089Z,22.70
2018-05-25T14:03:25.508Z,22.80
2018-05-25T14:05:51.928Z,22.60
2018-05-25T14:08:20.047Z,22.60
2018-05-25T14:10:46.447Z,22.60
2018-05-25T14:13:12.851Z,22.80
2018-05-25T14:15:39.259Z,22.70
2018-05-25T14:18:05.697Z,22.70
2018-05-25T14:20:32.116Z,22.80
2018-05-25T14:22:58.537Z,22.90
2018-05-25T14:25:24.988Z,22.90
2018-05-25T14:27:51.377Z,22.80
2018-05-25T14:30:17.762Z,22.90
2018-05-25T14:32:44.174Z,22.80
2018-05-25T14:35:10.579Z,22.60
2018-05-25T14:37:43.846Z,22.70
2018-05-25T14:40:10.997Z,22.70
2018-05-25T14:42:38.293Z,22.60
2018-05-25T14:45:04.736Z,22.60
2018-05-25T14:47:31.151Z,22.60
2018-05-25T14:49:57.541Z,22.50
2018-05-25T14:52:23.934Z,22.70
2018-05-25T14:54:50.340Z,22.80
2018-05-25T14:57:16.748Z,23.00
2018-05-25T14:59:43.882Z,23.00
2018-05-25T15:02:11.759Z,23.00
2018-05-25T15:04:38.933Z,23.00
2018-05-25T15:07:05.314Z,23.00
2018-05-25T15:09:31.720Z,23.00
2018-05-25T15:11:58.118Z,23.00
2018-05-25T15:14:25.287Z,22.90
2018-05-25T15:16:52.394Z,22.90
2018-05-25T15:19:18.779Z,22.90
2018-05-25T15:21:45.336Z,22.90
2018-05-25T15:24:11.706Z,22.60
2018-05-25T15:26:38.846Z,22.30
2018-05-25T15:29:05.257Z,22.30
2018-05-25T15:31:31.658Z,22.10
2018-05-25T15:33:58.036Z,22.00
2018-05-25T15:36:24.451Z,22.00
2018-05-25T15:38:50.839Z,21.90
2018-05-25T15:41:17.974Z,21.80
2018-05-25T15:43:45.114Z,21.60
2018-05-25T15:46:11.515Z,21.60
2018-05-25T15:48:38.028Z,21.60
2018-05-25T15:51:04.435Z,21.60
2018-05-25T15:53:31.570Z,21.30
2018-05-25T15:55:59.450Z,21.20
2018-05-25T15:58:26.623Z,21.20
2018-05-25T16:00:53.034Z,21.20
2018-05-25T16:03:20.202Z,21.30
2018-05-25T16:05:46.675Z,21.20
2018-05-25T16:08:13.070Z,21.20
2018-05-25T16:10:39.498Z,21.20
2018-05-25T16:13:05.907Z,21.10
2018-05-25T16:15:33.043Z,21.20
2018-05-25T16:17:59.449Z,21.10
2018-05-25T16:20:25.880Z,21.30
2018-05-25T16:22:52.274Z,21.30
2018-05-25T16:25:19.433Z,21.50
2018-05-25T16:27:45.905Z,21.40
2018-05-25T16:30:12.295Z,21.40
2018-05-25T16:32:38.681Z,21.50
2018-05-25T16:35:05.097Z,21.60
2018-05-25T16:37:31.499Z,21.50
2018-05-25T16:39:57.885Z,21.60
2018-05-25T16:42:24.271Z,21.50
2018-05-25T16:44:50.651Z,21.50
2018-05-25T16:47:17.120Z,21.40
2018-05-25T16:49:44.260Z,21.40
2018-05-25T16:52:11.412Z,21.40
2018-05-25T16:54:38.564Z,21.40
2018-05-25T16:57:05.695Z,21.40
2018-05-25T16:59:33.026Z,21.40
2018-05-25T17:01:59.427Z,21.40
2018-05-25T17:04:25.840Z,21.60
2018-05-25T17:06:52.959Z,21.70
2018-05-25T17:09:19.350Z,21.60
2018-05-25T17:11:45.726Z,21.60
2018-05-25T17:14:12.126Z,21.40
2018-05-25T17:16:38.513Z,21.40
2018-05-25T17:19:05.761Z,21.40
2018-05-25T17:21:32.931Z,21.30
2018-05-25T17:23:59.327Z,21.30
2018-05-25T17:26:25.707Z,21.30
2018-05-25T17:28:52.141Z,21.30
2018-05-25T17:31:18.571Z,21.20
2018-05-25T17:33:45.023Z,21.20
2018-05-25T17:36:11.478Z,21.20
2018-05-25T17:38:37.858Z,21.20
2018-05-25T17:41:04.266Z,21.30
2018-05-25T17:43:31.444Z,21.30
2018-05-25T17:45:57.906Z,21.30
2018-05-25T17:48:24.319Z,21.30
2018-05-25T17:50:50.721Z,21.30
2018-05-25T17:53:17.869Z,21.20
2018-05-25T17:55:45.040Z,21.10
2018-05-25T17:58:12.175Z,21.10
2018-05-25T18:00:39.343Z,21.10
2018-05-25T18:03:05.867Z,21.00
2018-05-25T18:05:32.271Z,21.00
2018-05-25T18:07:58.647Z,21.00
2018-05-25T18:10:25.310Z,20.90
2018-05-25T18:12:52.465Z,20.80
2018-05-25T18:15:18.843Z,20.80
2018-05-25T18:17:45.995Z,20.70
2018-05-25T18:20:12.414Z,20.70
2018-05-25T18:22:38.864Z,20.60
2018-05-25T18:25:06.029Z,20.50
2018-05-25T18:27:32.650Z,20.50
2018-05-25T18:29:59.801Z,20.30
2018-05-25T18:32:27.020Z,20.30
2018-05-25T18:34:54.946Z,20.20
2018-05-25T18:37:21.365Z,20.20
2018-05-25T18:39:48.508Z,20.20
2018-05-25T18:42:15.714Z,20.20
2018-05-25T18:44:42.120Z,20.20
2018-05-25T18:47:08.573Z,20.10
2018-05-25T18:49:35.010Z,20.00
2018-05-25T18:52:01.454Z,20.00
2018-05-25T18:54:32.031Z,19.90
2018-05-25T18:56:58.429Z,19.80
2018-05-25T18:59:24.874Z,19.80
2018-05-25T19:01:51.273Z,19.80
2018-05-25T19:04:17.668Z,19.70
2018-05-25T19:06:44.080Z,19.70
2018-05-25T19:09:11.241Z,19.60
2018-05-25T19:11:38.442Z,19.50
2018-05-25T19:14:04.890Z,19.50
2018-05-25T19:16:31.276Z,19.60
2018-05-25T19:18:57.677Z,19.50
2018-05-25T19:21:24.067Z,19.40
2018-05-25T19:23:50.458Z,19.40
2018-05-25T19:26:16.863Z,19.50
2018-05-25T19:28:44.730Z,19.30
2018-05-25T19:31:11.864Z,19.30
2018-05-25T19:33:38.318Z,19.20
2018-05-25T19:36:05.623Z,19.30
2018-05-25T19:38:32.055Z,19.20
2018-05-25T19:40:58.467Z,19.20
2018-05-25T19:43:24.904Z,19.10
2018-05-25T19:45:52.189Z,19.10
2018-05-25T19:48:19.419Z,19.00
2018-05-25T19:50:46.566Z,19.00
2018-05-25T19:53:12.969Z,18.90
2018-05-25T19:55:40.109Z,18.90
2018-05-25T19:58:07.466Z,18.90
2018-05-25T20:00:34.604Z,18.70
2018-05-25T20:03:01.021Z,18.70
2018-05-25T20:05:27.470Z,18.70
2018-05-25T20:07:54.770Z,18.70
2018-05-25T20:10:21.220Z,18.70
2018-05-25T20:12:47.611Z,18.70
2018-05-25T20:15:14.745Z,18.50
2018-05-25T20:17:41.140Z,18.50
2018-05-25T20:20:07.526Z,18.40
2018-05-25T20:22:34.818Z,18.30
2018-05-25T20:25:14.372Z,18.20
2018-05-25T20:27:40.751Z,18.20
2018-05-25T20:30:07.949Z,18.10
2018-05-25T20:32:34.360Z,18.00
2018-05-25T20:35:00.857Z,18.10
2018-05-25T20:37:27.295Z,18.00
2018-05-25T20:39:53.697Z,18.00
2018-05-25T20:42:20.162Z,18.00
2018-05-25T20:44:47.363Z,18.00
2018-05-25T20:47:13.758Z,18.00
2018-05-25T20:49:40.881Z,18.10
2018-05-25T20:52:07.310Z,18.10
2018-05-25T20:54:33.721Z,18.00
2018-05-25T20:57:00.147Z,17.90
2018-05-25T20:59:26.543Z,17.90
2018-05-25T21:01:53.740Z,17.70
2018-05-25T21:04:20.152Z,17.70
2018-05-25T21:06:46.613Z,17.60
2018-05-25T21:09:13.012Z,17.50
2018-05-25T21:11:39.446Z,17.60
2018-05-25T21:14:05.838Z,17.50
2018-05-25T21:16:32.215Z,17.50
2018-05-25T21:18:58.620Z,17.40
2018-05-25T21:21:25.767Z,17.30
2018-05-25T21:23:52.942Z,17.20
2018-05-25T21:26:19.331Z,17.10
2018-05-25T21:28:45.732Z,17.20
2018-05-25T21:31:12.160Z,17.20
2018-05-25T21:33:38.563Z,17.30
2018-05-25T21:36:05.000Z,17.20
2018-05-25T21:38:31.405Z,17.10
2018-05-25T21:40:58.546Z,17.00
2018-05-25T21:43:25.699Z,16.90
2018-05-25T21:45:52.291Z,16.90
2018-05-25T21:48:18.701Z,16.90
2018-05-25T21:50:45.154Z,16.90
2018-05-25T21:53:11.561Z,16.80
2018-05-25T21:55:37.947Z,16.70
2018-05-25T21:58:04.347Z,16.70
2018-05-25T22:00:30.776Z,16.70
2018-05-25T22:02:57.219Z,16.70
2018-05-25T22:05:23.610Z,16.50
2018-05-25T22:07:50.789Z,16.50
2018-05-25T22:10:17.216Z,16.50
2018-05-25T22:12:43.650Z,16.50
2018-05-25T22:15:10.062Z,16.50
2018-05-25T22:17:37.209Z,16.40
2018-05-25T22:20:04.360Z,16.30
2018-05-25T22:22:31.509Z,16.20
2018-05-25T22:24:58.644Z,16.10
2018-05-25T22:27:25.042Z,16.10
2018-05-25T22:29:51.443Z,16.00
2018-05-25T22:32:17.880Z,16.10
2018-05-25T22:34:44.307Z,16.10
2018-05-25T22:37:10.707Z,16.20
2018-05-25T22:39:37.102Z,16.20
2018-05-25T22:42:03.300Z,16.10
2018-05-25T22:44:41.931Z,16.10
2018-05-25T22:47:20.639Z,16.20
2018-05-25T22:49:59.203Z,16.10
2018-05-25T22:52:31.471Z,16.10
2018-05-25T22:54:57.891Z,16.10
2018-05-25T22:57:24.328Z,16.00
2018-05-25T22:59:50.770Z,16.00
2018-05-25T23:02:17.176Z,16.00
2018-05-25T23:04:43.587Z,16.00
2018-05-25T23:07:09.980Z,16.00
2018-05-25T23:09:36.396Z,16.00
2018-05-25T23:12:02.833Z,16.00
2018-05-25T23:14:29.259Z,16.10
2018-05-25T23:16:56.420Z,16.00
2018-05-25T23:19:22.832Z,16.00
2018-05-25T23:21:49.988Z,15.80
2018-05-25T23:24:16.377Z,15.80
2018-05-25T23:26:43.524Z,15.80
2018-05-25T23:29:10.712Z,15.70
2018-05-25T23:31:37.097Z,15.70
2018-05-25T23:34:03.508Z,15.70
2018-05-25T23:36:29.906Z,15.70
2018-05-25T23:38:56.321Z,15.80
2018-05-25T23:41:22.709Z,15.80
2018-05-25T23:43:49.108Z,15.90
2018-05-25T23:46:15.517Z,15.80
2018-05-25T23:48:41.936Z,15.80
2018-05-25T23:51:09.074Z,15.80
2018-05-25T23:53:36.224Z,15.80
2018-05-25T23:56:03.343Z,15.80
2018-05-25T23:58:30.499Z,15.80
